Time;durP1;ratioP1;P1;durP2;ratioP2;P2;SDS_P1;SDS_P2;PMS_P1;PMS_P2;Temp;Humidity;BMP_temperature;BMP_pressure;BME280_temperature;BME280_humidity;BME280_pressure;Samples;Min_cycle;Max_cycle;Signal;HPM_P1;HPM_P2
2022/07/28 00:02:19;;;;;;;;;3.00;2.75;;;;;22.01;31.11;101117.53;5007009;28;45494;-53
2022/07/28 00:04:44;;;;;;;;;2.00;2.00;;;;;21.98;30.95;101117.72;4999977;28;45563;-53
2022/07/28 00:07:10;;;;;;;;;2.75;1.50;;;;;21.94;31.01;101102.75;4999651;28;45312;-53
2022/07/28 00:09:36;;;;;;;;;4.25;3.50;;;;;21.92;31.36;101103.72;5015082;28;45243;-52
2022/07/28 00:12:01;;;;;;;;;1.25;1.25;;;;;21.89;31.18;101101.22;4999902;28;45214;-51
2022/07/28 00:14:27;;;;;;;;;1.25;1.25;;;;;21.85;31.46;101096.13;4999797;28;45573;-53
2022/07/28 00:16:52;;;;;;;;;2.50;2.50;;;;;21.86;30.97;101097.84;4999451;28;46050;-50
2022/07/28 00:19:19;;;;;;;;;2.00;2.00;;;;;21.82;31.54;101088.28;4999741;28;45365;-52
2022/07/28 00:21:44;;;;;;;;;5.00;2.00;;;;;21.80;31.74;101088.38;5001167;28;45317;-54
2022/07/28 00:24:09;;;;;;;;;2.00;1.00;;;;;21.78;31.97;101090.25;5003000;28;45312;-53
2022/07/28 00:26:35;;;;;;;;;2.25;2.25;;;;;21.77;31.79;101098.38;5018153;28;47965;-54
2022/07/28 00:29:00;;;;;;;;;5.75;3.00;;;;;21.72;31.64;101088.78;5002963;28;45348;-55
2022/07/28 00:31:25;;;;;;;;;1.75;1.75;;;;;21.67;31.39;101079.28;5002875;28;45459;-54
2022/07/28 00:33:51;;;;;;;;;5.75;3.00;;;;;21.70;31.66;101087.16;5003098;28;45304;-54
2022/07/28 00:36:16;;;;;;;;;1.50;1.50;;;;;21.67;32.07;101084.63;5002567;28;45265;-55
2022/07/28 00:38:41;;;;;;;;;4.25;1.75;;;;;21.63;32.15;101073.25;5002961;28;45396;-54
2022/07/28 00:41:10;;;;;;;;;4.00;2.00;;;;;21.63;31.67;101069.72;5002869;28;45185;-54
2022/07/28 00:43:44;;;;;;;;;3.00;3.00;;;;;21.61;32.12;101071.59;5003199;28;45150;-54
2022/07/28 00:46:10;;;;;;;;;5.75;2.75;;;;;21.59;32.28;101061.00;5002488;28;46123;-54
2022/07/28 00:48:39;;;;;;;;;2.00;2.00;;;;;21.57;31.70;101061.09;5002655;28;45434;-54
2022/07/28 00:51:07;;;;;;;;;2.00;2.00;;;;;21.55;31.77;101057.63;5015730;28;45406;-54
2022/07/28 00:53:33;;;;;;;;;1.75;1.75;;;;;21.53;31.69;101053.28;5010432;28;45206;-53
2022/07/28 00:55:58;;;;;;;;;2.00;2.00;;;;;21.52;31.86;101056.91;5002374;28;46174;-53
2022/07/28 00:58:27;;;;;;;;;4.00;1.50;;;;;21.51;31.83;101053.38;5002717;28;45324;-54
2022/07/28 01:00:53;;;;;;;;;3.75;3.75;;;;;21.49;32.07;101052.59;5002654;28;45246;-57
2022/07/28 01:03:19;;;;;;;;;2.00;2.00;;;;;21.48;31.95;101050.84;5009503;28;45545;-54
2022/07/28 01:05:55;;;;;;;;;3.25;2.25;;;;;21.48;31.90;101052.69;5002058;28;46165;-54
2022/07/28 01:08:31;;;;;;;;;2.00;1.50;;;;;21.48;32.14;101047.34;5002575;28;45336;-55
2022/07/28 01:11:20;;;;;;;;;1.25;1.25;;;;;21.47;32.19;101050.94;5002468;28;45329;-54
2022/07/28 01:13:57;;;;;;;;;2.00;2.00;;;;;21.47;32.39;101040.25;5002306;28;45211;-55
2022/07/28 01:16:22;;;;;;;;;3.75;2.75;;;;;21.46;32.14;101046.53;5002118;28;45379;-54
2022/07/28 01:18:56;;;;;;;;;2.00;2.00;;;;;21.41;32.90;101045.00;5002126;28;45388;-55
2022/07/28 01:21:32;;;;;;;;;2.00;2.00;;;;;21.41;32.52;101039.66;5017409;28;45278;-55
2022/07/28 01:24:15;;;;;;;;;2.00;2.00;;;;;21.42;32.62;101043.16;5017145;28;45604;-55
2022/07/28 01:26:57;;;;;;;;;3.00;3.00;;;;;21.37;32.79;101038.09;5002017;28;45275;-55
2022/07/28 01:29:22;;;;;;;;;1.50;1.50;;;;;21.38;32.71;101045.19;5000842;28;45362;-56
2022/07/28 01:31:58;;;;;;;;;1.00;1.00;;;;;21.37;32.29;101043.44;5001954;28;45226;-55
2022/07/28 01:34:30;;;;;;;;;3.00;2.00;;;;;21.36;32.70;101047.06;5002122;28;45353;-55
2022/07/28 01:37:06;;;;;;;;;2.00;2.00;;;;;21.35;32.96;101037.31;5001806;28;45410;-54
2022/07/28 01:39:34;;;;;;;;;1.50;1.50;;;;;21.33;32.72;101023.16;5000512;28;45432;-55
2022/07/28 01:42:03;;;;;;;;;1.75;1.00;;;;;21.30;32.38;101023.34;5001953;28;45330;-55
2022/07/28 01:44:32;;;;;;;;;2.50;2.50;;;;;21.27;32.50;101035.06;5001837;28;45268;-54
2022/07/28 01:46:59;;;;;;;;;2.00;2.00;;;;;21.24;32.41;101031.69;5001623;28;46196;-55
2022/07/28 01:49:27;;;;;;;;;1.00;1.00;;;;;21.22;32.34;101030.91;5001775;28;45159;-53
2022/07/28 01:51:56;;;;;;;;;3.00;1.00;;;;;21.19;32.65;101031.94;5021339;28;45343;-53
2022/07/28 01:54:23;;;;;;;;;2.00;2.00;;;;;21.17;33.00;101031.16;5002589;28;45401;-53
2022/07/28 01:56:51;;;;;;;;;2.00;2.00;;;;;21.16;33.05;101028.59;5000296;28;47337;-50
2022/07/28 01:59:18;;;;;;;;;1.00;1.00;;;;;21.14;32.66;101025.13;5001548;28;45237;-51
2022/07/28 02:01:45;;;;;;;;;2.00;2.00;;;;;21.13;32.62;101026.06;5008737;28;45557;-52
2022/07/28 02:04:14;;;;;;;;;2.00;2.00;;;;;21.11;33.22;101024.34;5001777;28;45508;-55
2022/07/28 02:06:42;;;;;;;;;2.75;2.00;;;;;21.08;32.58;101016.50;4999905;28;46097;-54
2022/07/28 02:09:09;;;;;;;;;2.00;2.00;;;;;21.08;33.07;101020.97;5001662;28;45434;-54
2022/07/28 02:11:41;;;;;;;;;2.50;1.50;;;;;21.06;32.84;101013.03;5000237;28;45368;-54
2022/07/28 02:14:16;;;;;;;;;2.00;2.00;;;;;21.06;33.02;101005.03;5001610;28;45294;-55
2022/07/28 02:16:47;;;;;;;;;1.00;1.00;;;;;21.05;32.76;101005.97;5001216;28;46388;-53
2022/07/28 02:19:13;;;;;;;;;2.00;2.00;;;;;21.04;33.22;101006.94;5001426;28;45305;-52
2022/07/28 02:21:41;;;;;;;;;3.25;2.00;;;;;21.04;33.16;101006.94;5001106;28;45167;-55
2022/07/28 02:24:10;;;;;;;;;2.00;2.00;;;;;21.02;33.27;101008.81;4999200;28;45402;-54
2022/07/28 02:26:39;;;;;;;;;2.00;2.00;;;;;21.00;33.17;101005.34;4999825;28;48404;-54
2022/07/28 02:29:09;;;;;;;;;2.00;2.00;;;;;21.01;33.02;101003.56;5001217;28;45265;-53
2022/07/28 02:31:43;;;;;;;;;2.25;2.25;;;;;21.00;33.02;101008.03;5016353;28;45309;-54
2022/07/28 02:34:11;;;;;;;;;2.00;2.00;;;;;20.99;33.41;101006.28;5001090;28;45337;-54
2022/07/28 02:36:44;;;;;;;;;1.00;1.00;;;;;20.98;33.51;100999.25;5000793;28;45947;-55
2022/07/28 02:39:24;;;;;;;;;3.00;2.50;;;;;20.95;33.09;100996.72;5000878;28;45443;-53
2022/07/28 02:41:57;;;;;;;;;1.75;1.50;;;;;20.94;33.08;100998.56;5001081;28;45259;-54
2022/07/28 02:44:29;;;;;;;;;1.00;1.00;;;;;20.94;33.29;100995.00;5000273;28;45463;-54
2022/07/28 02:46:57;;;;;;;;;3.25;3.00;;;;;20.93;33.12;100987.97;5000616;28;46079;-54
2022/07/28 02:49:29;;;;;;;;;2.00;1.75;;;;;20.93;32.97;100993.28;5000876;28;45259;-55
2022/07/28 02:51:57;;;;;;;;;2.00;2.00;;;;;20.92;33.36;100991.56;5011456;28;45331;-55
2022/07/28 02:54:26;;;;;;;;;3.25;2.50;;;;;20.91;33.06;100988.00;5001532;28;45187;-52
2022/07/28 02:56:52;;;;;;;;;2.00;1.25;;;;;20.91;33.49;100988.00;5000601;28;45258;-54
2022/07/28 02:59:19;;;;;;;;;1.50;1.50;;;;;20.91;33.55;100988.00;5000719;28;45321;-53
2022/07/28 03:01:46;;;;;;;;;1.00;1.00;;;;;20.91;33.17;100988.00;5008012;28;45400;-55
2022/07/28 03:04:13;;;;;;;;;0.25;0.25;;;;;20.92;33.17;100986.22;5000860;28;45366;-55
2022/07/28 03:06:39;;;;;;;;;1.50;1.50;;;;;20.92;33.18;100996.91;5000088;28;46256;-55
2022/07/28 03:09:08;;;;;;;;;4.00;2.00;;;;;20.92;33.69;100992.41;5000669;28;45325;-55
2022/07/28 03:11:33;;;;;;;;;2.00;1.00;;;;;20.92;33.15;100989.75;5000458;28;45325;-54
2022/07/28 03:13:58;;;;;;;;;1.00;1.00;;;;;20.91;33.46;100989.84;5000463;28;45389;-54
2022/07/28 03:16:24;;;;;;;;;3.00;2.00;;;;;20.91;33.11;100987.16;5000239;28;45331;-53
2022/07/28 03:18:49;;;;;;;;;1.00;1.00;;;;;20.90;33.32;100993.44;5000517;28;45334;-55
2022/07/28 03:21:15;;;;;;;;;1.75;1.75;;;;;20.89;32.73;100987.25;5000230;28;45420;-54
2022/07/28 03:23:44;;;;;;;;;2.00;2.00;;;;;20.91;33.37;100995.19;5000693;28;45384;-54
2022/07/28 03:26:22;;;;;;;;;1.00;1.00;;;;;20.91;33.30;100992.50;5000038;28;46460;-53
2022/07/28 03:28:51;;;;;;;;;3.00;2.00;;;;;20.89;33.86;100989.91;5000299;28;45458;-54
2022/07/28 03:31:19;;;;;;;;;2.00;2.00;;;;;20.91;33.24;100995.19;4999717;28;45586;-55
2022/07/28 03:33:46;;;;;;;;;3.25;1.50;;;;;20.89;33.85;100987.25;5000138;28;45205;-55
2022/07/28 03:36:14;;;;;;;;;1.25;1.25;;;;;20.87;33.48;100981.13;4999822;28;46107;-57
2022/07/28 03:38:47;;;;;;;;;3.00;2.00;;;;;20.89;33.72;100986.38;5000075;28;45397;-54
2022/07/28 03:41:15;;;;;;;;;1.50;1.50;;;;;20.89;33.73;100986.38;5000149;28;45349;-53
2022/07/28 03:43:43;;;;;;;;;4.00;1.75;;;;;20.89;33.32;100995.25;5000170;28;45332;-54
2022/07/28 03:46:08;;;;;;;;;1.00;1.00;;;;;20.89;34.03;100989.91;5015116;28;47245;-54
2022/07/28 03:48:34;;;;;;;;;2.25;1.25;;;;;20.89;33.41;100986.38;5000195;28;45230;-53
2022/07/28 03:51:00;;;;;;;;;3.00;3.00;;;;;20.87;33.78;100980.28;5012403;28;46302;-53
2022/07/28 03:53:28;;;;;;;;;2.00;2.00;;;;;20.88;33.86;100988.19;5008705;28;45492;-52
2022/07/28 03:55:54;;;;;;;;;2.00;2.00;;;;;20.89;33.55;100989.03;4999952;28;46246;-51
2022/07/28 03:58:25;;;;;;;;;2.00;2.00;;;;;20.88;33.41;100990.88;5003377;28;45417;-53
2022/07/28 04:00:50;;;;;;;;;3.75;3.00;;;;;20.84;33.63;100989.31;5003123;28;45445;-53
2022/07/28 04:03:17;;;;;;;;;2.00;2.00;;;;;20.87;33.43;100990.97;5010483;28;45405;-53
2022/07/28 04:05:43;;;;;;;;;2.50;2.00;;;;;20.86;33.83;100995.41;5002959;28;45537;-52
2022/07/28 04:08:08;;;;;;;;;2.00;2.00;;;;;20.83;34.04;100989.38;5003297;28;45329;-51
2022/07/28 04:10:33;;;;;;;;;2.25;2.25;;;;;20.85;33.55;100988.34;5003350;28;45251;-52
2022/07/28 04:13:00;;;;;;;;;2.50;2.50;;;;;20.85;33.70;100988.34;5003323;28;45456;-48
2022/07/28 04:15:26;;;;;;;;;3.00;2.00;;;;;20.84;33.72;100986.63;5001706;28;46553;-50
2022/07/28 04:17:53;;;;;;;;;3.00;3.00;;;;;20.85;33.67;100987.50;5002883;28;45345;-53
2022/07/28 04:20:21;;;;;;;;;3.00;2.00;;;;;20.86;33.94;100994.56;5003134;28;45376;-51
2022/07/28 04:22:47;;;;;;;;;2.50;1.75;;;;;20.85;33.82;100982.16;5002711;28;45536;-51
2022/07/28 04:25:14;;;;;;;;;2.50;2.00;;;;;20.85;34.12;100976.81;5002810;28;45634;-52
2022/07/28 04:27:43;;;;;;;;;2.00;2.00;;;;;20.85;33.98;100991.00;5001628;28;45441;-48
2022/07/28 04:30:17;;;;;;;;;1.50;1.50;;;;;20.86;33.79;100983.88;5003219;28;45254;-49
2022/07/28 04:32:44;;;;;;;;;2.75;2.75;;;;;20.88;33.95;100987.31;5002618;28;45257;-52
2022/07/28 04:35:10;;;;;;;;;3.75;3.75;;;;;20.88;33.86;100987.31;5002741;28;45452;-52
2022/07/28 04:37:37;;;;;;;;;3.00;3.00;;;;;20.84;33.94;100970.63;5002561;28;45288;-49
2022/07/28 04:40:04;;;;;;;;;6.50;5.25;;;;;20.86;34.09;100984.72;5002821;28;45381;-51
2022/07/28 04:42:29;;;;;;;;;3.00;3.00;;;;;20.84;34.11;100975.06;5002597;28;45365;-51
2022/07/28 04:44:55;;;;;;;;;4.00;2.75;;;;;20.84;33.86;100970.63;5017843;28;46185;-52
2022/07/28 04:47:21;;;;;;;;;2.00;2.00;;;;;20.86;33.97;100983.88;5002545;28;45383;-51
2022/07/28 04:49:46;;;;;;;;;4.00;3.00;;;;;20.86;34.40;100978.53;5005809;28;45323;-51
2022/07/28 04:52:12;;;;;;;;;3.50;2.00;;;;;20.86;34.19;100976.72;5020170;28;45323;-51
2022/07/28 04:54:37;;;;;;;;;4.00;3.00;;;;;20.86;34.34;100978.53;5002732;28;46249;-50
2022/07/28 04:57:03;;;;;;;;;3.75;2.25;;;;;20.85;33.77;100975.00;5002497;28;45276;-52
2022/07/28 04:59:29;;;;;;;;;2.25;2.00;;;;;20.85;34.36;100964.31;5002636;28;45501;-50
2022/07/28 05:01:58;;;;;;;;;3.50;2.00;;;;;20.84;34.35;100975.97;5009502;28;45538;-49
2022/07/28 05:04:23;;;;;;;;;3.75;3.75;;;;;20.81;34.41;100961.91;5002362;28;47422;-50
2022/07/28 05:06:49;;;;;;;;;2.50;2.00;;;;;20.83;34.42;100968.88;5001520;28;45467;-53
2022/07/28 05:09:15;;;;;;;;;4.50;4.00;;;;;20.83;33.99;100970.66;5002523;28;45353;-52
2022/07/28 05:11:41;;;;;;;;;5.25;4.75;;;;;20.83;34.02;100976.00;5002128;28;45317;-53
2022/07/28 05:14:06;;;;;;;;;2.75;2.75;;;;;20.83;34.27;100981.34;5001915;28;45508;-53
2022/07/28 05:16:32;;;;;;;;;3.00;3.00;;;;;20.83;34.10;100974.22;5001762;28;46489;-50
2022/07/28 05:18:57;;;;;;;;;3.00;3.00;;;;;20.83;34.49;100981.34;5002348;28;45321;-51
2022/07/28 05:21:22;;;;;;;;;3.00;2.25;;;;;20.84;34.16;100980.41;5001719;28;45216;-50
2022/07/28 05:23:48;;;;;;;;;2.75;2.75;;;;;20.84;33.98;100983.09;5002122;28;45352;-53
2022/07/28 05:26:13;;;;;;;;;5.00;4.00;;;;;20.83;34.11;100981.34;5001972;28;45219;-52
2022/07/28 05:28:39;;;;;;;;;3.00;3.00;;;;;20.85;34.27;100979.47;5001985;28;45321;-52
2022/07/28 05:31:04;;;;;;;;;4.25;1.25;;;;;20.82;34.72;100979.63;5001801;28;45427;-51
2022/07/28 05:33:30;;;;;;;;;3.00;3.00;;;;;20.85;34.71;100980.31;5001359;28;45170;-52
2022/07/28 05:35:58;;;;;;;;;4.75;4.00;;;;;20.85;34.74;100982.16;5001713;28;45319;-53
2022/07/28 05:38:25;;;;;;;;;5.00;3.75;;;;;20.86;34.39;100982.06;5001932;28;45396;-49
2022/07/28 05:40:51;;;;;;;;;7.50;6.00;;;;;20.88;34.11;100980.19;5001624;28;45348;-50
2022/07/28 05:43:16;;;;;;;;;7.00;4.00;;;;;20.89;34.69;100976.56;5001520;28;46370;-53
2022/07/28 05:45:42;;;;;;;;;6.50;3.25;;;;;20.90;34.75;100985.44;5001882;28;45384;-53
2022/07/28 05:48:07;;;;;;;;;5.25;3.00;;;;;20.84;34.91;100969.72;5001762;28;45369;-52
2022/07/28 05:50:33;;;;;;;;;5.00;3.25;;;;;20.89;34.07;100975.69;5025769;28;45347;-49
2022/07/28 05:52:58;;;;;;;;;5.00;5.00;;;;;20.93;34.17;100985.28;5013777;28;46097;-51
2022/07/28 05:55:24;;;;;;;;;4.50;4.50;;;;;20.92;34.75;100976.38;5001408;28;45294;-52
2022/07/28 05:57:49;;;;;;;;;6.00;5.00;;;;;20.91;34.78;100977.31;5001715;28;45139;-51
2022/07/28 06:00:20;;;;;;;;;4.00;4.00;;;;;20.94;34.75;100970.97;5000044;28;45393;-50
2022/07/28 06:02:47;;;;;;;;;4.75;4.00;;;;;20.96;34.90;100979.75;5008799;28;46218;-52
2022/07/28 06:05:16;;;;;;;;;3.25;3.25;;;;;20.99;34.41;100973.38;5000515;28;45233;-50
2022/07/28 06:07:42;;;;;;;;;4.25;4.00;;;;;21.00;34.79;100981.31;5001165;28;45302;-52
2022/07/28 06:10:09;;;;;;;;;7.50;6.75;;;;;21.02;34.25;100982.09;5001111;28;45498;-50
2022/07/28 06:12:42;;;;;;;;;7.50;4.50;;;;;21.04;34.96;100984.69;5001363;28;45416;-50
2022/07/28 06:15:13;;;;;;;;;6.25;4.50;;;;;21.04;34.44;100985.56;5000964;28;45333;-50
2022/07/28 06:17:40;;;;;;;;;4.25;3.25;;;;;21.08;34.99;100988.91;5001332;28;45452;-52
2022/07/28 06:20:06;;;;;;;;;3.25;3.25;;;;;21.08;34.50;100989.78;5000529;28;45472;-53
2022/07/28 06:22:48;;;;;;;;;6.25;4.00;;;;;21.11;34.97;100992.28;5000673;28;46049;-53
2022/07/28 06:25:17;;;;;;;;;5.00;3.50;;;;;21.14;34.40;100993.06;5001045;28;45332;-50
2022/07/28 06:27:51;;;;;;;;;5.00;4.75;;;;;21.13;35.08;100988.66;5001075;28;45336;-52
2022/07/28 06:30:18;;;;;;;;;6.25;4.00;;;;;21.18;34.76;100983.94;5001134;28;45321;-52
2022/07/28 06:32:45;;;;;;;;;4.25;3.75;;;;;21.19;34.54;100991.84;5000523;28;45534;-52
2022/07/28 06:35:13;;;;;;;;;5.00;5.00;;;;;21.22;34.57;100990.81;5001084;28;45343;-53
2022/07/28 06:37:39;;;;;;;;;4.00;3.25;;;;;21.22;34.44;100985.47;5000799;28;45325;-52
2022/07/28 06:40:06;;;;;;;;;5.75;4.00;;;;;21.24;34.86;100989.81;5001145;28;45583;-52
2022/07/28 06:42:31;;;;;;;;;6.50;4.75;;;;;21.27;34.77;100988.78;5015991;28;48151;-53
2022/07/28 06:44:56;;;;;;;;;3.25;3.25;;;;;21.25;35.06;100986.16;5000938;28;45240;-52
2022/07/28 06:47:22;;;;;;;;;4.50;3.00;;;;;21.22;34.44;100972.13;5000884;28;45253;-52
2022/07/28 06:49:47;;;;;;;;;6.25;4.50;;;;;21.32;35.08;100989.38;5004161;28;45745;-51
2022/07/28 06:52:12;;;;;;;;;4.75;4.00;;;;;21.33;34.54;100983.06;5019083;28;45534;-51
2022/07/28 06:54:38;;;;;;;;;6.25;5.00;;;;;21.38;34.68;100996.19;5000840;28;45357;-52
2022/07/28 06:57:03;;;;;;;;;4.00;3.00;;;;;21.41;34.74;100994.22;5000895;28;45341;-53
2022/07/28 06:59:29;;;;;;;;;5.25;4.50;;;;;21.42;35.09;100987.91;5000680;28;45353;-51
2022/07/28 07:01:54;;;;;;;;;4.00;4.00;;;;;21.49;35.14;100990.25;5006859;28;46426;-51
2022/07/28 07:04:20;;;;;;;;;5.00;5.00;;;;;21.54;34.98;100993.53;5015944;28;45316;-53
2022/07/28 07:06:45;;;;;;;;;9.50;6.50;;;;;21.57;34.89;100993.38;5015709;28;45310;-52
2022/07/28 07:09:10;;;;;;;;;5.00;5.00;;;;;21.62;35.14;100993.97;4999293;28;45321;-53
2022/07/28 07:11:36;;;;;;;;;4.00;4.00;;;;;21.67;35.11;100991.94;5000014;28;53748;-52
2022/07/28 07:14:01;;;;;;;;;5.00;5.00;;;;;21.71;34.67;100981.88;5000595;28;45285;-49
2022/07/28 07:16:26;;;;;;;;;4.50;4.50;;;;;21.79;34.97;100986.81;5000431;28;45289;-50
2022/07/28 07:18:52;;;;;;;;;6.25;5.75;;;;;21.83;34.64;100991.88;5000159;28;52913;-50
2022/07/28 07:21:21;;;;;;;;;6.75;6.00;;;;;21.90;34.92;100992.41;4999978;28;46765;-51
2022/07/28 07:23:46;;;;;;;;;5.50;5.50;;;;;21.96;34.65;100992.06;5000455;28;45421;-52
2022/07/28 07:26:12;;;;;;;;;7.00;5.00;;;;;22.02;35.24;100986.31;5000216;28;45249;-52
2022/07/28 07:28:37;;;;;;;;;4.75;4.75;;;;;22.11;35.07;100990.28;5000438;28;45214;-48
2022/07/28 07:31:03;;;;;;;;;2.75;2.75;;;;;22.15;34.96;100983.81;4997942;28;47078;-51
2022/07/28 07:33:28;;;;;;;;;10.25;8.25;;;;;22.23;34.83;100983.34;5000223;28;45313;-50
2022/07/28 07:35:53;;;;;;;;;4.25;4.00;;;;;;;;4998867;28;45370;-48
2022/07/28 07:38:18;;;;;;;;;5.75;5.00;;;;;22.37;34.98;100986.09;5000006;28;45415;-52
2022/07/28 07:40:44;;;;;;;;;5.50;5.50;;;;;22.44;34.83;100988.38;4998594;28;46110;-52
2022/07/28 07:43:09;;;;;;;;;5.00;5.00;;;;;22.53;34.78;100990.53;4999925;28;45307;-50
2022/07/28 07:45:35;;;;;;;;;8.00;7.50;;;;;22.57;34.58;100989.38;5015275;28;45911;-50
2022/07/28 07:48:01;;;;;;;;;5.75;5.00;;;;;22.66;34.94;100983.44;4999882;28;45430;-50
2022/07/28 07:50:27;;;;;;;;;6.75;5.50;;;;;22.73;34.45;100983.97;5008029;28;45355;-52
2022/07/28 07:52:53;;;;;;;;;5.00;5.00;;;;;22.80;34.69;100987.09;5013086;28;45159;-51
2022/07/28 07:55:18;;;;;;;;;5.00;5.00;;;;;22.86;34.65;100986.72;5000025;28;45373;-51
2022/07/28 07:57:44;;;;;;;;;7.00;6.00;;;;;22.93;34.61;100987.19;4999799;28;45242;-48
2022/07/28 08:00:10;;;;;;;;;5.25;4.25;;;;;22.99;34.52;100990.38;4999821;28;45310;-52
2022/07/28 08:02:39;;;;;;;;;8.50;8.00;;;;;23.03;34.27;100983.84;5007276;28;45385;-51
2022/07/28 08:05:05;;;;;;;;;5.50;4.75;;;;;23.08;34.61;100991.63;4999735;28;45452;-50
2022/07/28 08:07:31;;;;;;;;;7.25;3.75;;;;;23.09;34.42;100990.63;4999555;28;45266;-48
2022/07/28 08:09:56;;;;;;;;;4.75;4.00;;;;;23.15;34.52;100986.72;4998186;28;45416;-48
2022/07/28 08:12:21;;;;;;;;;5.75;4.75;;;;;23.18;34.33;100992.78;4999662;28;45332;-49
2022/07/28 08:14:47;;;;;;;;;6.00;5.00;;;;;23.20;34.21;100984.63;4998511;28;45329;-50
2022/07/28 08:17:12;;;;;;;;;6.75;6.00;;;;;23.24;34.39;100985.31;4999601;28;45290;-52
2022/07/28 08:19:38;;;;;;;;;7.50;7.00;;;;;23.27;34.35;100985.97;4999454;28;45325;-53
2022/07/28 08:22:03;;;;;;;;;7.50;7.50;;;;;23.32;34.22;100991.03;4999037;28;45290;-48
2022/07/28 08:24:28;;;;;;;;;6.00;6.00;;;;;23.34;34.45;100987.28;4999635;28;45324;-51
2022/07/28 08:26:54;;;;;;;;;7.50;5.75;;;;;23.36;34.32;100985.38;4999647;28;45529;-49
2022/07/28 08:29:19;;;;;;;;;5.00;5.00;;;;;23.37;34.08;100981.75;4999383;28;46272;-51
2022/07/28 08:31:44;;;;;;;;;6.50;6.50;;;;;23.41;34.17;100979.72;4998146;28;45264;-52
2022/07/28 08:34:10;;;;;;;;;10.00;6.25;;;;;23.43;34.07;100982.31;4999518;28;45360;-52
2022/07/28 08:36:35;;;;;;;;;5.25;5.25;;;;;23.45;33.91;100977.72;4999379;28;45266;-54
2022/07/28 08:39:00;;;;;;;;;6.50;5.50;;;;;23.45;33.97;100967.84;4997852;28;46280;-53
2022/07/28 08:41:33;;;;;;;;;4.75;4.75;;;;;23.51;34.09;100985.34;4999328;28;45180;-51
2022/07/28 08:44:01;;;;;;;;;4.00;3.00;;;;;23.53;33.91;100978.94;5002914;28;45254;-51
2022/07/28 08:46:30;;;;;;;;;7.00;5.50;;;;;23.56;33.84;100972.50;5002169;28;45704;-50
2022/07/28 08:48:56;;;;;;;;;5.00;5.00;;;;;23.59;34.02;100979.50;5002367;28;45574;-53
2022/07/28 08:51:26;;;;;;;;;11.75;10.50;;;;;23.63;33.79;100978.31;5017651;28;45312;-50
2022/07/28 08:53:53;;;;;;;;;13.75;11.50;;;;;23.65;33.67;100969.22;5007745;28;45340;-51
2022/07/28 08:56:19;;;;;;;;;6.25;5.50;;;;;23.70;34.03;100974.28;5002495;28;45461;-51
2022/07/28 08:58:45;;;;;;;;;3.75;3.75;;;;;23.76;33.86;100983.72;5002248;28;46008;-51
2022/07/28 09:01:12;;;;;;;;;11.75;10.75;;;;;23.81;33.83;100979.78;5004975;28;45341;-50
2022/07/28 09:03:38;;;;;;;;;6.00;6.00;;;;;23.87;33.94;100973.13;5007364;28;45522;-51
2022/07/28 09:06:04;;;;;;;;;7.50;6.50;;;;;23.95;33.91;100978.91;5002396;28;45233;-51
2022/07/28 09:08:30;;;;;;;;;5.25;5.25;;;;;24.00;33.69;100966.03;5002235;28;46230;-54
2022/07/28 09:10:55;;;;;;;;;6.50;6.25;;;;;24.08;33.85;100961.97;5017116;28;45311;-54
2022/07/28 09:13:21;;;;;;;;;8.00;8.00;;;;;24.17;33.74;100969.41;5002477;28;45221;-53
2022/07/28 09:15:47;;;;;;;;;5.75;4.75;;;;;24.25;33.79;100964.38;5002434;28;45345;-50
2022/07/28 09:18:14;;;;;;;;;5.00;5.00;;;;;24.33;33.83;100963.84;5002288;28;45453;-52
2022/07/28 09:20:40;;;;;;;;;6.75;6.00;;;;;24.41;33.93;100961.47;5002117;28;45374;-52
2022/07/28 09:23:07;;;;;;;;;7.00;6.50;;;;;24.50;33.69;100966.22;5002325;28;45319;-52
2022/07/28 09:25:32;;;;;;;;;7.00;5.25;;;;;24.57;33.72;100963.97;5000968;28;45561;-51
2022/07/28 09:28:12;;;;;;;;;6.75;6.75;;;;;24.69;33.64;100969.47;5001916;28;46308;-53
2022/07/28 09:30:43;;;;;;;;;6.75;6.00;;;;;24.77;33.55;100967.13;5000922;28;45866;-53
2022/07/28 09:33:16;;;;;;;;;6.00;4.00;;;;;24.88;33.60;100971.72;5000857;28;45362;-52
2022/07/28 09:35:49;;;;;;;;;7.00;7.00;;;;;24.96;33.39;100964.81;5001816;28;45342;-54
2022/07/28 09:38:15;;;;;;;;;6.00;6.00;;;;;25.05;33.48;100967.84;5001782;28;46329;-53
2022/07/28 09:40:42;;;;;;;;;5.75;5.75;;;;;25.12;33.15;100956.53;5001760;28;45878;-53
2022/07/28 09:43:10;;;;;;;;;5.00;5.00;;;;;25.21;33.36;100959.53;5000739;28;45439;-52
2022/07/28 09:45:36;;;;;;;;;5.50;5.50;;;;;25.30;33.58;100950.78;5001924;28;45340;-51
2022/07/28 09:48:11;;;;;;;;;5.25;4.75;;;;;25.39;32.95;100952.81;5016761;28;47288;-52
2022/07/28 09:50:38;;;;;;;;;5.75;4.00;;;;;25.47;33.22;100949.53;5011035;28;45392;-53
2022/07/28 09:53:24;;;;;;;;;4.75;4.75;;;;;25.58;32.58;100951.44;5013285;28;45359;-51
2022/07/28 09:55:55;;;;;;;;;4.00;4.00;;;;;25.66;32.97;100949.06;5001463;28;45385;-53
2022/07/28 09:58:20;;;;;;;;;6.00;4.50;;;;;25.73;32.40;100949.44;5001610;28;46402;-54
2022/07/28 10:00:46;;;;;;;;;5.25;4.50;;;;;25.81;32.64;100936.28;5001109;28;45240;-54
2022/07/28 10:03:23;;;;;;;;;6.75;4.50;;;;;25.94;32.30;100947.81;5023978;28;45650;-54
2022/07/28 10:05:48;;;;;;;;;4.00;3.50;;;;;26.06;32.37;100955.97;5001137;28;45432;-51
2022/07/28 10:08:14;;;;;;;;;4.25;3.00;;;;;26.19;32.28;100942.41;5000073;28;47074;-53
2022/07/28 10:10:39;;;;;;;;;2.75;2.25;;;;;26.31;32.61;100938.78;5001234;28;45398;-51
2022/07/28 10:13:05;;;;;;;;;5.25;3.00;;;;;26.45;32.15;100945.78;5001580;28;45349;-53
2022/07/28 10:18:14;;;;;;;;;4.00;3.00;;;;;26.75;32.03;100934.47;5001234;28;45742;-54
2022/07/28 10:20:40;;;;;;;;;5.00;4.00;;;;;26.88;31.63;100931.63;5000651;28;45358;-53
2022/07/28 10:23:10;;;;;;;;;4.25;4.25;;;;;27.02;31.86;100933.22;5001381;28;45346;-49
2022/07/28 10:25:38;;;;;;;;;4.00;4.00;;;;;27.15;31.45;100938.47;5001208;28;45324;-53
2022/07/28 10:28:04;;;;;;;;;5.50;4.00;;;;;27.28;31.67;100932.06;5001009;28;46526;-53
2022/07/28 10:30:34;;;;;;;;;3.00;3.00;;;;;27.41;32.21;100932.81;5000892;28;45371;-53
2022/07/28 10:33:04;;;;;;;;;3.75;2.50;;;;;27.54;31.48;100933.47;5000694;28;45579;-52
2022/07/28 10:35:31;;;;;;;;;3.50;3.00;;;;;27.69;31.74;100930.50;5000565;28;45350;-52
2022/07/28 10:37:59;;;;;;;;;8.75;8.75;;;;;27.83;31.43;100932.88;5000533;28;46298;-51
2022/07/28 10:40:28;;;;;;;;;4.50;4.50;;;;;27.98;30.90;100935.28;5000521;28;45264;-49
2022/07/28 10:42:55;;;;;;;;;2.50;2.50;;;;;28.13;31.26;100927.75;5000709;28;45401;-53
2022/07/28 10:45:21;;;;;;;;;2.25;2.25;;;;;28.32;31.08;100929.72;5000947;28;45301;-50
2022/07/28 10:47:47;;;;;;;;;1.00;1.00;;;;;28.53;31.71;100938.63;5000598;28;45293;-50
2022/07/28 10:50:13;;;;;;;;;4.00;4.00;;;;;28.76;31.34;100935.78;5007219;28;45350;-51
2022/07/28 10:52:41;;;;;;;;;3.00;3.00;;;;;28.98;31.31;100937.44;5015548;28;45440;-54
2022/07/28 10:55:15;;;;;;;;;3.00;3.00;;;;;29.22;31.10;100938.06;5016082;28;45507;-53
2022/07/28 10:57:49;;;;;;;;;2.75;2.75;;;;;29.42;30.89;100936.28;5015826;28;46548;-54
2022/07/28 11:00:26;;;;;;;;;2.50;2.00;;;;;29.66;30.77;100935.88;5000496;28;45157;-51
2022/07/28 11:03:00;;;;;;;;;2.50;1.50;;;;;29.82;30.39;100936.19;5023491;28;45292;-53
2022/07/28 11:05:35;;;;;;;;;3.75;3.00;;;;;29.99;30.64;100920.22;4999738;28;45432;-51
2022/07/28 11:08:03;;;;;;;;;4.00;4.00;;;;;30.20;30.23;100927.31;5000492;28;46229;-53
2022/07/28 11:10:40;;;;;;;;;2.00;2.00;;;;;30.46;30.49;100933.81;5015119;28;45378;-52
2022/07/28 11:13:06;;;;;;;;;2.75;2.00;;;;;30.86;30.50;100931.84;5000800;28;45353;-54
2022/07/28 11:15:34;;;;;;;;;4.00;4.00;;;;;31.38;31.24;100920.41;5000541;28;45577;-55
2022/07/28 11:18:03;;;;;;;;;3.75;3.75;;;;;31.99;30.22;100930.66;5000344;28;45362;-55
2022/07/28 11:20:50;;;;;;;;;3.50;3.50;;;;;32.72;31.00;100926.75;5000106;28;45376;-55
2022/07/28 11:23:39;;;;;;;;;3.50;3.50;;;;;33.49;30.64;100937.59;5000364;28;45392;-55
2022/07/28 11:26:34;;;;;;;;;1.75;1.75;;;;;34.33;30.33;100923.78;5000270;28;45467;-52
2022/07/28 11:29:02;;;;;;;;;2.00;2.00;;;;;34.98;29.92;100926.50;4987788;28;45254;-55
2022/07/28 11:31:51;;;;;;;;;1.50;1.50;;;;;35.62;29.89;100928.19;4999967;28;45436;-54
2022/07/28 11:34:20;;;;;;;;;3.25;3.25;;;;;36.09;29.01;100920.84;4994844;28;45411;-54